createdAt,value
2023-05-23T00:01:08.260Z,101699.59
2023-05-23T00:03:37.760Z,101696.94
2023-05-23T00:06:06.976Z,101696.97
2023-05-23T00:08:35.011Z,101699.63
2023-05-23T00:11:02.465Z,101699.63
2023-05-23T00:13:30.048Z,101692.63
2023-05-23T00:15:57.454Z,101692.63
2023-05-23T00:18:25.610Z,101691.75
2023-05-23T00:20:53.169Z,101690.00
2023-05-23T00:23:21.495Z,101686.44
2023-05-23T00:25:53.414Z,101680.31
2023-05-23T00:28:21.150Z,101684.69
2023-05-23T00:30:52.161Z,101676.78
2023-05-23T00:33:22.536Z,101682.06
2023-05-23T00:35:50.187Z,101688.16
2023-05-23T00:38:18.259Z,101681.13
2023-05-23T00:40:45.846Z,101680.25
2023-05-23T00:43:13.398Z,101679.38
2023-05-23T00:45:41.142Z,101689.00
2023-05-23T00:48:09.211Z,101689.81
2023-05-23T00:50:36.815Z,101680.22
2023-05-23T00:53:04.842Z,101681.09
2023-05-23T00:55:32.744Z,101674.06
2023-05-23T00:58:00.833Z,101673.19
2023-05-23T01:00:29.081Z,101674.09
2023-05-23T01:02:56.871Z,101676.66
2023-05-23T01:05:25.205Z,101677.53
2023-05-23T01:07:54.327Z,101677.53
2023-05-23T01:10:25.759Z,101677.47
2023-05-23T01:13:31.112Z,101668.69
2023-05-23T01:16:04.755Z,101668.69
2023-05-23T01:18:54.716Z,101673.06
2023-05-23T01:21:24.550Z,101673.94
2023-05-23T01:24:13.532Z,101670.41
2023-05-23T01:26:56.646Z,101671.31
2023-05-23T01:29:38.318Z,101680.09
2023-05-23T01:32:11.761Z,101666.94
2023-05-23T01:34:40.315Z,101670.41
2023-05-23T01:37:11.900Z,101665.16
2023-05-23T01:39:39.472Z,101671.31
2023-05-23T01:42:07.623Z,101672.16
2023-05-23T01:44:37.226Z,101674.75
2023-05-23T01:47:07.333Z,101673.00
2023-05-23T01:49:37.257Z,101690.50
2023-05-23T01:52:05.515Z,101678.22
2023-05-23T01:54:35.613Z,101679.03
2023-05-23T01:57:03.587Z,101681.72
2023-05-23T01:59:31.208Z,101677.34
2023-05-23T02:01:58.943Z,101677.34
2023-05-23T02:04:28.492Z,101674.72
2023-05-23T02:06:56.119Z,101676.47
2023-05-23T02:09:23.770Z,101670.25
2023-05-23T02:11:51.412Z,101671.13
2023-05-23T02:14:19.076Z,101666.72
2023-05-23T02:16:46.575Z,101664.13
2023-05-23T02:19:14.214Z,101665.81
2023-05-23T02:21:41.641Z,101661.44
2023-05-23T02:24:09.084Z,101671.94
2023-05-23T02:26:37.151Z,101671.97
2023-05-23T02:29:04.750Z,101664.88
2023-05-23T02:31:32.254Z,101664.06
2023-05-23T02:33:59.991Z,101672.00
2023-05-23T02:36:27.629Z,101672.81
2023-05-23T02:38:56.041Z,101679.09
2023-05-23T02:41:23.470Z,101670.34
2023-05-23T02:43:51.048Z,101668.50
2023-05-23T02:46:18.669Z,101669.44
2023-05-23T02:48:46.267Z,101672.88
2023-05-23T02:51:16.495Z,101678.13
2023-05-23T02:53:43.957Z,101667.63
2023-05-23T02:56:13.532Z,101668.56
2023-05-23T02:58:41.420Z,101672.06
2023-05-23T03:01:09.073Z,101672.09
2023-05-23T03:03:36.855Z,101675.59
2023-05-23T03:06:07.137Z,101673.00
2023-05-23T03:08:34.713Z,101667.69
2023-05-23T03:11:02.312Z,101669.38
2023-05-23T03:13:30.726Z,101670.19
2023-05-23T03:15:58.226Z,101675.44
2023-05-23T03:18:25.967Z,101678.09
2023-05-23T03:20:53.570Z,101676.38
2023-05-23T03:23:23.717Z,101673.00
2023-05-23T03:25:51.815Z,101667.72
2023-05-23T03:28:19.463Z,101680.09
2023-05-23T03:30:46.954Z,101676.59
2023-05-23T03:33:14.538Z,101663.44
2023-05-23T03:35:42.350Z,101669.53
2023-05-23T03:38:10.129Z,101672.13
2023-05-23T03:40:37.742Z,101672.09
2023-05-23T03:43:06.972Z,101665.94
2023-05-23T03:45:37.064Z,101666.03
2023-05-23T03:48:11.341Z,101654.56
2023-05-23T03:50:40.268Z,101654.56
2023-05-23T03:53:08.186Z,101655.44
2023-05-23T03:55:36.604Z,101657.19
2023-05-23T03:58:04.028Z,101664.13
2023-05-23T04:00:31.672Z,101665.94
2023-05-23T04:03:00.940Z,101662.31
2023-05-23T04:05:29.671Z,101657.06
2023-05-23T04:07:57.692Z,101657.16
2023-05-23T04:10:25.172Z,101658.84
2023-05-23T04:12:53.512Z,101658.84
2023-05-23T04:15:21.747Z,101668.47
2023-05-23T04:17:58.413Z,101663.25
2023-05-23T04:20:28.016Z,101659.81
2023-05-23T04:22:55.766Z,101667.72
2023-05-23T04:25:25.215Z,101670.34
2023-05-23T04:28:06.682Z,101662.34
2023-05-23T04:30:34.772Z,101666.72
2023-05-23T04:33:02.346Z,101661.50
2023-05-23T04:35:30.067Z,101659.75
2023-05-23T04:37:57.571Z,101663.25
2023-05-23T04:40:27.334Z,101668.50
2023-05-23T04:43:37.444Z,101672.97
2023-05-23T04:46:22.217Z,101679.97
2023-05-23T04:48:56.522Z,101675.56
2023-05-23T04:51:25.139Z,101679.97
2023-05-23T04:53:56.757Z,101673.84
2023-05-23T04:56:28.538Z,101687.88
2023-05-23T04:58:56.321Z,101680.00
2023-05-23T05:01:25.485Z,101688.75
2023-05-23T05:03:53.173Z,101687.00
2023-05-23T05:06:21.784Z,101696.66
2023-05-23T05:08:49.859Z,101691.41
2023-05-23T05:11:17.361Z,101693.13
2023-05-23T05:13:44.972Z,101694.03
2023-05-23T05:16:12.416Z,101688.78
2023-05-23T05:18:40.508Z,101694.03
2023-05-23T05:21:09.499Z,101692.22
2023-05-23T05:23:38.030Z,101688.78
2023-05-23T05:26:08.353Z,101683.47
2023-05-23T05:28:36.689Z,101693.13
2023-05-23T05:31:05.409Z,101697.41
2023-05-23T05:33:36.423Z,101694.84
2023-05-23T05:36:10.062Z,101693.13
2023-05-23T05:38:38.180Z,101697.53
2023-05-23T05:41:06.810Z,101685.25
2023-05-23T05:43:39.773Z,101691.38
2023-05-23T05:46:07.430Z,101695.78
2023-05-23T05:48:35.124Z,101685.25
2023-05-23T05:51:07.165Z,101701.13
2023-05-23T05:53:35.558Z,101691.47
2023-05-23T05:56:03.417Z,101696.75
2023-05-23T05:58:33.213Z,101702.91
2023-05-23T06:01:07.391Z,101695.88
2023-05-23T06:03:35.340Z,101700.28
2023-05-23T06:06:03.214Z,101705.53
2023-05-23T06:08:30.883Z,101705.56
2023-05-23T06:10:58.409Z,101718.69
2023-05-23T06:13:27.125Z,101708.16
2023-05-23T06:15:55.255Z,101699.38
2023-05-23T06:18:23.696Z,101699.41
2023-05-23T06:20:52.251Z,101706.41
2023-05-23T06:23:21.982Z,101702.09
2023-05-23T06:25:49.610Z,101712.63
2023-05-23T06:28:17.326Z,101714.31
2023-05-23T06:30:46.521Z,101710.88
2023-05-23T06:33:14.119Z,101723.09
2023-05-23T06:35:43.543Z,101722.25
2023-05-23T06:38:11.133Z,101728.44
2023-05-23T06:40:38.969Z,101724.03
2023-05-23T06:43:06.742Z,101725.81
2023-05-23T06:45:54.459Z,101723.19
2023-05-23T06:48:22.161Z,101725.00
2023-05-23T06:50:49.996Z,101724.16
2023-05-23T06:53:19.352Z,101727.66
2023-05-23T06:55:48.457Z,101728.53
2023-05-23T06:58:19.223Z,101741.72
2023-05-23T07:00:47.318Z,101742.59
2023-05-23T07:03:23.153Z,101732.03
2023-05-23T07:05:51.810Z,101735.56
2023-05-23T07:08:20.593Z,101743.41
2023-05-23T07:10:59.177Z,101741.69
2023-05-23T07:13:33.685Z,101751.34
2023-05-23T07:16:01.465Z,101754.84
2023-05-23T07:18:29.040Z,101742.53
2023-05-23T07:20:58.072Z,101752.16
2023-05-23T07:23:25.943Z,101760.03
2023-05-23T07:26:01.694Z,101752.19
2023-05-23T07:28:40.483Z,101756.63
2023-05-23T07:31:09.610Z,101758.41
2023-05-23T07:33:38.187Z,101757.53
2023-05-23T07:36:07.146Z,101752.31
2023-05-23T07:38:34.867Z,101753.19
2023-05-23T07:41:10.858Z,101755.88
2023-05-23T07:43:40.791Z,101752.34
2023-05-23T07:46:08.444Z,101762.91
2023-05-23T07:48:36.467Z,101769.09
2023-05-23T07:51:04.741Z,101763.59
2023-05-23T07:53:32.378Z,101762.94
2023-05-23T07:56:00.535Z,101767.25
2023-05-23T07:58:33.412Z,101779.03
2023-05-23T08:01:00.982Z,101766.69
2023-05-23T08:04:07.349Z,101776.44
2023-05-23T08:06:45.804Z,101774.38
2023-05-23T08:09:29.153Z,101771.19
2023-05-23T08:12:02.443Z,101780.06
2023-05-23T08:14:38.616Z,101766.28
2023-05-23T08:17:25.331Z,101770.34
2023-05-23T08:19:57.185Z,101755.25
2023-05-23T08:22:24.887Z,101771.47
2023-05-23T08:24:52.571Z,101774.63
2023-05-23T08:27:21.126Z,101772.13
2023-05-23T08:29:52.886Z,101779.81
2023-05-23T08:32:21.007Z,101777.63
2023-05-23T08:34:49.617Z,101779.63
2023-05-23T08:37:17.482Z,101777.16
2023-05-23T08:39:45.306Z,101788.91
2023-05-23T08:42:33.277Z,101785.72
2023-05-23T08:45:01.864Z,101806.22
2023-05-23T08:47:34.165Z,101801.13
2023-05-23T08:50:06.641Z,101784.50
2023-05-23T08:52:37.940Z,101795.31
2023-05-23T08:55:07.223Z,101811.16
2023-05-23T08:57:36.164Z,101800.50
2023-05-23T09:00:20.407Z,101808.53
2023-05-23T09:02:48.756Z,101801.47
2023-05-23T09:05:32.277Z,101812.84
2023-05-23T09:08:01.114Z,101799.69
2023-05-23T09:10:30.044Z,101803.13
2023-05-23T09:12:58.683Z,101802.19
2023-05-23T09:15:27.503Z,101802.25
2023-05-23T09:18:01.845Z,101806.53
2023-05-23T09:20:30.224Z,101801.19
2023-05-23T09:23:06.089Z,101804.78
2023-05-23T09:25:38.002Z,101799.50
2023-05-23T09:28:06.361Z,101804.66
2023-05-23T09:30:39.795Z,101801.28
2023-05-23T09:33:08.216Z,101802.22
2023-05-23T09:35:36.773Z,101811.97
2023-05-23T09:38:04.337Z,101809.41
2023-05-23T09:40:33.275Z,101815.53
2023-05-23T09:43:04.440Z,101814.66
2023-05-23T09:45:33.503Z,101816.38
2023-05-23T09:48:02.542Z,101823.47
2023-05-23T09:50:34.079Z,101829.63
2023-05-23T09:53:03.149Z,101825.22
2023-05-23T09:55:30.922Z,101830.50
2023-05-23T09:58:00.345Z,101838.47
2023-05-23T10:00:28.921Z,101841.19
2023-05-23T10:03:01.858Z,101830.66
2023-05-23T10:05:44.271Z,101836.81
2023-05-23T10:08:19.274Z,101841.22
2023-05-23T10:10:58.661Z,101835.94
2023-05-23T10:13:27.452Z,101827.97
2023-05-23T10:16:20.028Z,101836.78
2023-05-23T10:18:53.173Z,101832.34
2023-05-23T10:21:29.465Z,101839.34
2023-05-23T10:24:00.092Z,101837.56
2023-05-23T10:26:28.673Z,101831.34
2023-05-23T10:28:58.119Z,101823.38
2023-05-23T10:31:25.748Z,101835.72
2023-05-23T10:34:23.498Z,101853.41
2023-05-23T10:37:02.911Z,101845.50
2023-05-23T10:39:54.708Z,101834.91
2023-05-23T10:42:50.418Z,101837.44
2023-05-23T10:45:22.901Z,101826.69
2023-05-23T10:47:54.293Z,101823.91
2023-05-23T10:50:37.513Z,101826.53
2023-05-23T10:53:06.487Z,101826.47
2023-05-23T10:55:35.918Z,101820.19
2023-05-23T10:58:12.104Z,101824.72
2023-05-23T11:00:52.122Z,101824.59
2023-05-23T11:03:45.969Z,101816.69
2023-05-23T11:06:47.328Z,101848.31
2023-05-23T11:09:19.635Z,101828.13
2023-05-23T11:12:02.985Z,101814.31
2023-05-23T11:14:33.832Z,101824.72
2023-05-23T11:17:16.553Z,101812.94
2023-05-23T11:19:58.813Z,101817.94
2023-05-23T11:22:32.416Z,101805.31
2023-05-23T11:25:06.443Z,101810.19
2023-05-23T11:27:36.339Z,101818.09
2023-05-23T11:30:18.289Z,101800.63
2023-05-23T11:32:53.401Z,101805.81
2023-05-23T11:35:22.181Z,101803.28
2023-05-23T11:37:49.851Z,101813.31
2023-05-23T11:40:50.069Z,101794.13
2023-05-23T11:43:20.885Z,101801.78
2023-05-23T11:45:48.544Z,101799.13
2023-05-23T11:48:17.896Z,101799.19
2023-05-23T11:50:50.218Z,101784.66
2023-05-23T11:53:21.079Z,101797.53
2023-05-23T11:55:53.761Z,101783.44
2023-05-23T11:58:23.042Z,101786.25
2023-05-23T12:00:51.701Z,101780.84
2023-05-23T12:03:20.643Z,101785.34
2023-05-23T12:05:48.718Z,101783.19
2023-05-23T12:08:16.295Z,101781.09
2023-05-23T12:10:57.924Z,101791.47
2023-05-23T12:13:26.645Z,101790.09
2023-05-23T12:15:56.161Z,101792.06
2023-05-23T12:18:24.507Z,101782.88
2023-05-23T12:20:52.421Z,101786.03
2023-05-23T12:23:22.649Z,101794.59
2023-05-23T12:25:52.839Z,101799.28
2023-05-23T12:28:38.734Z,101782.22
2023-05-23T12:31:14.173Z,101782.00
2023-05-23T12:33:46.113Z,101804.63
2023-05-23T12:36:22.828Z,101788.91
2023-05-23T12:38:50.635Z,101778.94
2023-05-23T12:41:20.034Z,101780.38
2023-05-23T12:43:55.988Z,101777.44
2023-05-23T12:46:27.869Z,101778.88
2023-05-23T12:48:55.862Z,101784.88
2023-05-23T12:51:23.683Z,101789.09
2023-05-23T12:53:51.812Z,101787.94
2023-05-23T12:56:21.467Z,101778.22
2023-05-23T12:58:49.234Z,101766.75
2023-05-23T13:01:16.851Z,101783.06
2023-05-23T13:03:44.683Z,101781.22
2023-05-23T13:06:12.237Z,101776.81
2023-05-23T13:08:39.824Z,101776.66
2023-05-23T13:11:07.284Z,101777.94
2023-05-23T13:13:34.930Z,101772.00
2023-05-23T13:16:02.494Z,101780.03
2023-05-23T13:18:29.993Z,101777.00
2023-05-23T13:20:57.570Z,101773.22
2023-05-23T13:23:26.228Z,101763.97
2023-05-23T13:25:54.317Z,101767.09
2023-05-23T13:28:21.903Z,101766.31
2023-05-23T13:30:49.773Z,101754.84
2023-05-23T13:33:17.745Z,101762.06
2023-05-23T13:35:45.618Z,101757.25
2023-05-23T13:38:13.168Z,101750.56
2023-05-23T13:40:41.110Z,101763.63
2023-05-23T13:43:09.022Z,101754.97
2023-05-23T13:45:36.615Z,101789.97
2023-05-23T13:48:04.301Z,101752.19
2023-05-23T13:50:31.833Z,101744.69
2023-05-23T13:52:59.629Z,101743.72
2023-05-23T13:55:27.707Z,101725.53
2023-05-23T13:57:55.214Z,101738.72
2023-05-23T14:00:22.765Z,101725.41
2023-05-23T14:02:50.466Z,101731.41
2023-05-23T14:05:19.591Z,101734.97
2023-05-23T14:07:47.612Z,101731.25
2023-05-23T14:10:15.604Z,101728.06
2023-05-23T14:12:43.292Z,101716.47
2023-05-23T14:15:11.817Z,101723.44
2023-05-23T14:17:39.925Z,101728.69
2023-05-23T14:20:08.771Z,101719.47
2023-05-23T14:22:36.529Z,101724.75
2023-05-23T14:25:04.225Z,101711.41
2023-05-23T14:27:33.819Z,101706.53
2023-05-23T14:30:01.411Z,101712.31
2023-05-23T14:32:29.116Z,101705.53
2023-05-23T14:34:56.581Z,101708.16
2023-05-23T14:37:24.246Z,101714.09
2023-05-23T14:39:51.665Z,101709.34
2023-05-23T14:42:19.234Z,101698.59
2023-05-23T14:44:46.857Z,101702.06
2023-05-23T14:47:14.473Z,101696.97
2023-05-23T14:49:41.912Z,101698.50
2023-05-23T14:52:09.384Z,101703.06
2023-05-23T14:54:36.857Z,101696.50
2023-05-23T14:57:04.826Z,101689.13
2023-05-23T14:59:32.673Z,101694.94
2023-05-23T15:02:00.422Z,101686.72
2023-05-23T15:04:28.093Z,101688.84
2023-05-23T15:06:55.736Z,101689.47
2023-05-23T15:09:23.180Z,101686.59
2023-05-23T15:11:50.873Z,101690.97
2023-05-23T15:14:18.460Z,101684.44
2023-05-23T15:16:46.685Z,101685.38
2023-05-23T15:19:14.319Z,101686.44
2023-05-23T15:21:50.377Z,101691.41
2023-05-23T15:24:19.321Z,101690.06
2023-05-23T15:26:47.232Z,101693.69
2023-05-23T15:29:17.015Z,101683.03
2023-05-23T15:31:45.277Z,101675.03
2023-05-23T15:34:12.954Z,101673.97
2023-05-23T15:36:40.985Z,101666.09
2023-05-23T15:39:08.939Z,101685.22
2023-05-23T15:41:36.453Z,101680.41
2023-05-23T15:44:04.139Z,101677.50
2023-05-23T15:46:31.834Z,101677.63
2023-05-23T15:49:05.072Z,101683.16
2023-05-23T15:51:41.297Z,101681.41
2023-05-23T15:54:08.885Z,101683.34
2023-05-23T15:56:36.538Z,101669.94
2023-05-23T15:59:04.130Z,101680.25
2023-05-23T16:01:33.184Z,101679.38
2023-05-23T16:04:01.143Z,101673.16
2023-05-23T16:06:28.813Z,101680.53
2023-05-23T16:08:56.305Z,101679.81
2023-05-23T16:11:24.237Z,101675.66
2023-05-23T16:13:51.740Z,101692.56
2023-05-23T16:16:19.665Z,101680.34
2023-05-23T16:18:47.268Z,101671.16
2023-05-23T16:21:20.512Z,101671.00
2023-05-23T16:23:49.299Z,101669.91
2023-05-23T16:26:17.447Z,101674.69
2023-05-23T16:28:45.837Z,101673.88
2023-05-23T16:31:17.201Z,101670.47
2023-05-23T16:33:45.239Z,101665.38
2023-05-23T16:36:12.812Z,101678.66
2023-05-23T16:38:40.340Z,101676.88
2023-05-23T16:41:07.862Z,101683.53
2023-05-23T16:43:35.740Z,101674.19
2023-05-23T16:46:03.430Z,101671.75
2023-05-23T16:48:31.357Z,101691.44
2023-05-23T16:50:58.969Z,101674.91
2023-05-23T16:53:26.488Z,101683.00
2023-05-23T16:55:54.031Z,101682.25
2023-05-23T16:58:21.743Z,101671.47
2023-05-23T17:00:49.251Z,101665.25
2023-05-23T17:03:16.923Z,101677.06
2023-05-23T17:05:44.703Z,101672.66
2023-05-23T17:08:12.521Z,101681.72
2023-05-23T17:10:40.275Z,101685.13
2023-05-23T17:13:08.140Z,101693.19
2023-05-23T17:15:36.712Z,101680.84
2023-05-23T17:18:04.371Z,101685.22
2023-05-23T17:20:32.010Z,101689.75
2023-05-23T17:22:59.494Z,101691.44
2023-05-23T17:25:27.000Z,101680.09
2023-05-23T17:27:55.924Z,101679.13
2023-05-23T17:30:23.423Z,101679.91
2023-05-23T17:32:51.402Z,101688.81
2023-05-23T17:35:19.101Z,101693.38
2023-05-23T17:37:46.735Z,101696.03
2023-05-23T17:40:15.954Z,101702.31
2023-05-23T17:42:43.641Z,101698.94
2023-05-23T17:45:12.026Z,101696.41
2023-05-23T17:47:39.650Z,101696.44
2023-05-23T17:50:07.834Z,101690.31
2023-05-23T17:52:35.915Z,101694.84
2023-05-23T17:55:03.770Z,101695.72
2023-05-23T17:57:31.529Z,101696.56
2023-05-23T18:00:02.106Z,101702.75
2023-05-23T18:02:40.184Z,101691.41
2023-05-23T18:05:09.437Z,101711.72
2023-05-23T18:07:36.997Z,101696.88
2023-05-23T18:10:06.606Z,101715.34
2023-05-23T18:12:34.053Z,101710.09
2023-05-23T18:15:01.546Z,101704.81
2023-05-23T18:17:29.083Z,101717.16
2023-05-23T18:19:56.853Z,101713.63
2023-05-23T18:22:24.758Z,101717.16
2023-05-23T18:24:52.308Z,101727.69
2023-05-23T18:27:19.733Z,101725.06
2023-05-23T18:29:47.474Z,101733.84
2023-05-23T18:32:14.966Z,101733.91
2023-05-23T18:34:42.865Z,101734.78
2023-05-23T18:37:10.308Z,101726.03
2023-05-23T18:39:38.038Z,101748.00
2023-05-23T18:42:05.842Z,101758.53
2023-05-23T18:44:33.655Z,101755.91
2023-05-23T18:47:01.214Z,101760.28
2023-05-23T18:49:28.866Z,101760.28
2023-05-23T18:51:56.378Z,101755.88
2023-05-23T18:54:23.917Z,101757.66
2023-05-23T18:56:51.730Z,101766.44
2023-05-23T18:59:19.365Z,101768.16
2023-05-23T19:01:46.837Z,101780.47
2023-05-23T19:04:14.682Z,101783.09
2023-05-23T19:06:42.328Z,101777.78
2023-05-23T19:09:11.756Z,101782.16
2023-05-23T19:11:39.884Z,101781.28
2023-05-23T19:14:07.489Z,101779.47
2023-05-23T19:16:36.541Z,101771.63
2023-05-23T19:19:04.136Z,101772.44
2023-05-23T19:21:31.966Z,101778.59
2023-05-23T19:23:59.587Z,101780.34
2023-05-23T19:26:27.023Z,101790.84
2023-05-23T19:28:54.558Z,101786.47
2023-05-23T19:31:22.096Z,101782.06
2023-05-23T19:33:49.683Z,101790.81
2023-05-23T19:36:17.409Z,101796.00
2023-05-23T19:38:44.923Z,101788.06
2023-05-23T19:41:12.559Z,101791.53
2023-05-23T19:43:40.105Z,101790.63
2023-05-23T19:46:07.705Z,101780.09
2023-05-23T19:48:35.281Z,101789.75
2023-05-23T19:51:02.770Z,101791.41
2023-05-23T19:53:31.019Z,101799.38
2023-05-23T19:55:58.624Z,101809.00
2023-05-23T19:58:26.516Z,101808.03
2023-05-23T20:00:53.975Z,101808.94
2023-05-23T20:03:21.760Z,101815.94
2023-05-23T20:05:49.263Z,101820.25
2023-05-23T20:08:17.408Z,101824.56
2023-05-23T20:10:44.990Z,101842.09
2023-05-23T20:13:12.559Z,101831.56
2023-05-23T20:15:40.773Z,101840.25
2023-05-23T20:18:08.662Z,101839.25
2023-05-23T20:20:36.261Z,101846.28
2023-05-23T20:23:03.985Z,101857.66
2023-05-23T20:25:31.539Z,101856.69
2023-05-23T20:27:59.262Z,101859.22
2023-05-23T20:30:26.778Z,101856.59
2023-05-23T20:32:54.630Z,101862.59
2023-05-23T20:35:22.946Z,101866.09
2023-05-23T20:37:53.822Z,101867.06
2023-05-23T20:40:22.751Z,101863.41
2023-05-23T20:42:50.288Z,101870.47
2023-05-23T20:45:17.811Z,101872.06
2023-05-23T20:47:46.395Z,101872.06
2023-05-23T20:50:14.775Z,101869.41
2023-05-23T20:52:43.259Z,101871.09
2023-05-23T20:55:11.139Z,101868.44
2023-05-23T20:57:39.638Z,101866.66
2023-05-23T21:00:12.127Z,101876.34
2023-05-23T21:02:40.669Z,101876.28
2023-05-23T21:05:09.771Z,101877.13
2023-05-23T21:07:37.904Z,101878.06
2023-05-23T21:10:06.171Z,101877.13
2023-05-23T21:12:33.770Z,101876.25
2023-05-23T21:15:01.274Z,101877.00
2023-05-23T21:17:28.794Z,101879.69
2023-05-23T21:19:56.254Z,101891.91
2023-05-23T21:22:23.886Z,101890.13
2023-05-23T21:24:51.832Z,101897.84
2023-05-23T21:27:19.405Z,101907.47
2023-05-23T21:29:47.295Z,101901.28
2023-05-23T21:32:14.920Z,101902.97
2023-05-23T21:34:42.456Z,101901.25
2023-05-23T21:37:10.096Z,101905.44
2023-05-23T21:39:50.803Z,101915.22
2023-05-23T21:42:20.100Z,101909.91
2023-05-23T21:44:47.485Z,101923.97
2023-05-23T21:47:15.175Z,101914.28
2023-05-23T21:49:42.983Z,101911.56
2023-05-23T21:52:10.645Z,101906.22
2023-05-23T21:54:38.065Z,101901.75
2023-05-23T21:57:05.798Z,101909.53
2023-05-23T21:59:33.451Z,101921.09
2023-05-23T22:02:01.335Z,101922.81
2023-05-23T22:04:28.845Z,101923.63
2023-05-23T22:06:56.668Z,101919.94
2023-05-23T22:09:24.182Z,101914.69
2023-05-23T22:11:51.871Z,101923.50
2023-05-23T22:14:19.294Z,101935.59
2023-05-23T22:16:47.000Z,101931.16
2023-05-23T22:19:18.158Z,101929.31
2023-05-23T22:21:45.783Z,101925.69
2023-05-23T22:24:13.311Z,101931.75
2023-05-23T22:26:40.826Z,101937.03
2023-05-23T22:29:08.397Z,101922.88
2023-05-23T22:31:36.007Z,101924.69
2023-05-23T22:34:03.582Z,101925.53
2023-05-23T22:36:33.566Z,101917.56
2023-05-23T22:39:05.568Z,101925.28
2023-05-23T22:41:33.360Z,101916.44
2023-05-23T22:44:01.164Z,101921.63
2023-05-23T22:46:28.887Z,101914.75
2023-05-23T22:48:56.363Z,101916.38
2023-05-23T22:51:24.926Z,101913.78
2023-05-23T22:53:53.067Z,101919.00
2023-05-23T22:56:20.964Z,101913.78
2023-05-23T22:58:48.386Z,101918.94
2023-05-23T23:01:15.996Z,101916.53
2023-05-23T23:03:43.454Z,101915.41
2023-05-23T23:06:12.377Z,101917.06
2023-05-23T23:08:39.857Z,101919.50
2023-05-23T23:11:07.393Z,101925.41
2023-05-23T23:13:34.757Z,101923.13
2023-05-23T23:16:02.282Z,101914.25
2023-05-23T23:18:29.715Z,101919.16
2023-05-23T23:20:57.240Z,101921.53
2023-05-23T23:23:24.789Z,101923.38
2023-05-23T23:25:52.594Z,101913.97
2023-05-23T23:28:20.746Z,101929.53
2023-05-23T23:30:48.496Z,101916.16
2023-05-23T23:33:16.164Z,101921.34
2023-05-23T23:35:48.710Z,101922.09
2023-05-23T23:38:16.599Z,101915.25
2023-05-23T23:40:45.690Z,101933.00
2023-05-23T23:43:13.674Z,101926.56
2023-05-23T23:45:41.314Z,101924.75
2023-05-23T23:48:08.823Z,101937.75
2023-05-23T23:50:36.281Z,101928.03
2023-05-23T23:53:04.622Z,101937.66
2023-05-23T23:55:32.096Z,101939.97
2023-05-23T23:57:59.700Z,101933.75
